Merkelbeek, Netherlands
Current Conditions -  °F | °C
As of 8:50 AM on Thursday 27 Nov 2014 (Local Time) from ETNG Reporting Station
Broken Clouds Broken Clouds  
Wind Chill: 37°   Ceiling: 4700
Heat Index: 43°   Visibility: 6mi
Dew Point: 41°   Wind: 9mph
Humidity: 93%   Direction: 100°E
Pressure: 29.77"   Gusts: NA
Location:  50.95°N, 5.94°E
Report Text: ETNG 270750Z 10008KT 9000 SCT033 BKN047 06/05 Q1008 NOSIG
Loading
Personal Weather Stations






























Interactive Weather Map New forecast layout! Learn more

10-Day Weather Forecast

Advertisements
Track Severe Weather on mobile